Time;durP1;ratioP1;P1;durP2;ratioP2;P2;SDS_P1;SDS_P2;PMS_P1;PMS_P2;Temp;Humidity;BMP_temperature;BMP_pressure;BME280_temperature;BME280_humidity;BME280_pressure;Samples;Min_cycle;Max_cycle;Signal;HPM_P1;HPM_P2
2021/09/29 00:00:05;;;;;;;8.70;7.13;;;;;;;10.50;100.00;101288.13;5092898;28;20042;-84
2021/09/29 00:02:31;;;;;;;9.20;5.88;;;;;;;10.52;100.00;101289.00;5094107;28;20059;-84
2021/09/29 00:04:58;;;;;;;8.23;6.63;;;;;;;10.54;100.00;101280.25;5077581;28;20046;-82
2021/09/29 00:07:24;;;;;;;9.60;5.50;;;;;;;10.54;100.00;101280.25;5091810;28;20120;-83
2021/09/29 00:09:51;;;;;;;9.30;5.97;;;;;;;10.55;100.00;101283.78;5074123;28;20052;-83
2021/09/29 00:12:18;;;;;;;11.75;6.00;;;;;;;10.53;100.00;101281.16;5076297;28;20735;-83
2021/09/29 00:14:44;;;;;;;8.43;6.47;;;;;;;10.53;100.00;101273.31;5090547;28;20048;-84
2021/09/29 00:17:11;;;;;;;7.57;6.25;;;;;;;10.52;100.00;101276.78;5093493;28;20469;-83
2021/09/29 00:19:38;;;;;;;8.77;5.72;;;;;;;10.53;100.00;101281.16;5074411;28;20771;-83
2021/09/29 00:22:04;;;;;;;10.98;6.40;;;;;;;10.54;100.00;101267.19;5092130;28;20067;-83
2021/09/29 00:24:31;;;;;;;6.85;6.13;;;;;;;10.55;100.00;101275.91;5092730;28;20044;-83
2021/09/29 00:26:57;;;;;;;12.45;6.85;;;;;;;10.57;100.00;101276.78;5091711;28;20036;-84
2021/09/29 00:29:24;;;;;;;8.15;6.43;;;;;;;10.58;100.00;101268.91;5092373;28;20089;-81
2021/09/29 00:31:50;;;;;;;8.18;5.60;;;;;;;10.58;100.00;101279.38;5073144;28;20090;-82
2021/09/29 00:34:28;;;;;;;6.43;5.53;;;;;;;10.62;100.00;101274.19;5091917;28;20051;-81
2021/09/29 00:36:57;;;;;;;6.60;5.78;;;;;;;10.62;100.00;101282.03;5074023;28;20040;-81
2021/09/29 00:39:24;;;;;;;7.30;5.28;;;;;;;10.59;100.00;101275.03;5074877;28;20524;-84
2021/09/29 00:41:51;;;;;;;7.78;5.63;;;;;;;10.57;100.00;101271.53;5108308;28;20097;-82
2021/09/29 00:44:18;;;;;;;7.93;6.07;;;;;;;10.52;100.00;101276.78;5091351;28;20085;-83
2021/09/29 00:46:45;;;;;;;8.85;5.85;;;;;;;10.48;100.00;101271.53;5093535;28;20072;-85
2021/09/29 00:49:13;;;;;;;10.00;7.05;;;;;;;10.44;100.00;101273.25;5094103;28;20564;-83
2021/09/29 00:51:40;;;;;;;10.23;6.35;;;;;;;10.39;100.00;101261.91;5075724;28;20040;-83
2021/09/29 00:54:08;;;;;;;11.20;6.45;;;;;;;10.37;100.00;101264.53;5087869;28;20048;-83
2021/09/29 00:56:34;;;;;;;11.00;5.90;;;;;;;10.34;100.00;101258.38;5091399;28;20075;-82
2021/09/29 00:59:01;;;;;;;8.60;5.85;;;;;;;10.31;100.00;101256.66;5090546;28;20046;-82
2021/09/29 01:01:28;;;;;;;9.30;7.30;;;;;;;10.33;100.00;101254.91;5091438;28;20052;-84
2021/09/29 01:03:55;;;;;;;8.63;5.80;;;;;;;10.33;100.00;101251.44;5079061;28;20048;-83
2021/09/29 01:06:35;;;;;;;7.57;5.45;;;;;;;10.34;100.00;101248.81;5094699;28;20163;-82
2021/09/29 01:09:15;;;;;;;8.27;5.38;;;;;;;10.35;100.00;101247.06;5089408;28;20144;-83
2021/09/29 01:12:21;;;;;;;7.38;5.20;;;;;;;10.35;100.00;101247.06;5089873;28;20036;-82
2021/09/29 01:14:59;;;;;;;7.90;5.80;;;;;;;10.34;100.00;101240.06;5087582;28;20044;-83
2021/09/29 01:17:28;;;;;;;6.13;4.88;;;;;;;10.34;100.00;101235.72;5092163;28;20048;-84
2021/09/29 01:20:24;;;;;;;6.97;4.40;;;;;;;10.35;100.00;101228.72;5075998;28;20444;-82
2021/09/29 01:23:46;;;;;;;5.90;4.78;;;;;;;10.35;100.00;101226.13;5089389;28;20043;-84
2021/09/29 01:26:19;;;;;;;8.90;5.97;;;;;;;10.39;100.00;101225.28;5090342;28;20036;-83
2021/09/29 01:28:59;;;;;;;8.98;5.80;;;;;;;10.42;100.00;101220.94;5089547;28;20062;-82
2021/09/29 01:31:26;;;;;;;9.43;5.07;;;;;;;10.45;100.00;101222.66;5088623;28;20892;-83
2021/09/29 01:33:54;;;;;;;10.82;4.82;;;;;;;10.43;100.00;101213.97;5085828;28;20119;-83
2021/09/29 01:36:23;;;;;;;7.70;5.50;;;;;;;10.42;100.00;101213.06;5094957;28;20097;-83
2021/09/29 01:38:54;;;;;;;7.68;5.80;;;;;;;10.44;100.00;101213.06;5088591;28;20040;-83
2021/09/29 01:41:27;;;;;;;9.20;5.60;;;;;;;10.46;100.00;101198.25;5074668;28;20096;-83
2021/09/29 01:44:05;;;;;;;5.38;4.88;;;;;;;10.48;100.00;101196.53;5091398;28;20062;-83
2021/09/29 01:46:32;;;;;;;9.75;5.68;;;;;;;10.52;100.00;101195.63;5087168;28;20085;-83
2021/09/29 01:49:25;;;;;;;11.57;6.47;;;;;;;10.55;100.00;101189.53;5089553;28;20127;-83
2021/09/29 01:51:54;;;;;;;7.10;5.82;;;;;;;10.57;100.00;101193.00;5089872;28;20052;-84
2021/09/29 01:54:25;;;;;;;11.15;4.95;;;;;;;10.57;100.00;101188.66;5072539;28;20040;-85
2021/09/29 01:56:53;;;;;;;7.13;4.88;;;;;;;10.57;100.00;101186.03;5075204;28;20155;-84
2021/09/29 01:59:20;;;;;;;9.52;5.30;;;;;;;10.58;100.00;101177.28;5107361;28;20067;-82
2021/09/29 02:01:46;;;;;;;6.25;4.72;;;;;;;10.57;100.00;101178.19;5082840;28;20080;-81
2021/09/29 02:04:13;;;;;;;7.55;3.80;;;;;;;10.58;100.00;101171.19;5074238;28;20044;-84
2021/09/29 02:06:51;;;;;;;7.05;5.05;;;;;;;10.56;100.00;101176.44;5054370;28;20064;-83
2021/09/29 02:09:19;;;;;;;6.95;4.72;;;;;;;10.51;100.00;101165.09;5073990;28;20071;-83
2021/09/29 02:11:47;;;;;;;6.93;4.30;;;;;;;10.47;100.00;101168.59;5057744;28;20114;-86
2021/09/29 02:14:20;;;;;;;5.60;3.92;;;;;;;10.40;100.00;101162.50;5056809;28;20136;-82
2021/09/29 02:16:49;;;;;;;4.28;3.72;;;;;;;10.31;100.00;101161.56;5085127;28;20056;-83
2021/09/29 02:19:17;;;;;;;6.03;4.85;;;;;;;10.24;100.00;101156.31;5099658;28;20047;-85
2021/09/29 02:21:45;;;;;;;7.70;5.95;;;;;;;10.21;100.00;101152.84;5099608;28;20050;-84
2021/09/29 02:24:13;;;;;;;7.00;5.15;;;;;;;10.21;100.00;101145.00;5094947;28;20059;-82
2021/09/29 02:26:40;;;;;;;6.25;4.20;;;;;;;10.22;100.00;101150.25;5095477;28;20044;-84
2021/09/29 02:29:08;;;;;;;9.80;4.50;;;;;;;10.25;100.00;101146.75;5094752;28;20040;-84
2021/09/29 02:31:35;;;;;;;4.75;3.92;;;;;;;10.27;100.00;101148.50;5083014;28;20041;-84
2021/09/29 02:34:02;;;;;;;4.07;3.60;;;;;;;10.33;100.00;101144.13;5058265;28;20053;-83
2021/09/29 02:36:29;;;;;;;4.95;3.65;;;;;;;10.35;100.00;101145.00;5075552;28;20062;-82
2021/09/29 02:38:56;;;;;;;7.05;4.75;;;;;;;10.38;100.00;101145.91;5073273;28;20043;-81
2021/09/29 02:41:24;;;;;;;6.32;4.28;;;;;;;10.40;100.00;101144.16;5070879;28;20048;-81
2021/09/29 02:43:51;;;;;;;4.22;3.28;;;;;;;10.39;100.00;101137.19;5066447;28;20453;-82
2021/09/29 02:46:17;;;;;;;4.75;3.75;;;;;;;10.37;100.00;101130.19;5075436;28;20040;-81
2021/09/29 02:48:44;;;;;;;6.05;3.38;;;;;;;10.36;100.00;101131.94;5074329;28;20045;-82
2021/09/29 02:51:10;;;;;;;5.03;4.10;;;;;;;10.33;100.00;101133.66;5072627;28;20041;-81
2021/09/29 02:53:37;;;;;;;4.95;4.13;;;;;;;10.31;100.00;101130.16;5065877;28;20071;-82
2021/09/29 02:56:05;;;;;;;9.63;3.75;;;;;;;10.25;100.00;101134.53;5075113;28;20045;-83
2021/09/29 02:58:32;;;;;;;7.75;4.50;;;;;;;10.22;100.00;101123.19;5057410;28;20046;-81
2021/09/29 03:01:00;;;;;;;5.75;4.07;;;;;;;10.18;100.00;101119.72;5080897;28;20183;-83
2021/09/29 03:03:27;;;;;;;6.75;4.30;;;;;;;10.16;100.00;101129.28;5074898;28;20055;-83
2021/09/29 03:05:54;;;;;;;4.50;3.28;;;;;;;10.15;100.00;101118.84;5074461;28;20394;-81
2021/09/29 03:08:20;;;;;;;8.70;5.25;;;;;;;10.16;100.00;101110.13;5076182;28;20055;-84
2021/09/29 03:10:47;;;;;;;5.38;3.88;;;;;;;10.16;100.00;101117.97;5056308;28;20131;-83
2021/09/29 03:13:16;;;;;;;5.13;3.97;;;;;;;10.16;100.00;101116.22;5073929;28;20066;-84
2021/09/29 03:15:43;;;;;;;6.53;4.90;;;;;;;10.15;100.00;101106.63;5073453;28;20075;-82
2021/09/29 03:18:11;;;;;;;4.43;3.58;;;;;;;10.15;100.00;101117.06;5071872;28;20135;-82
2021/09/29 03:20:37;;;;;;;7.07;4.45;;;;;;;10.15;100.00;101113.59;5077208;28;20049;-83
2021/09/29 03:23:04;;;;;;;5.70;4.07;;;;;;;10.14;100.00;101117.94;5070984;28;20037;-81
2021/09/29 03:25:31;;;;;;;6.78;5.03;;;;;;;10.14;100.00;101112.72;5073916;28;20049;-81
2021/09/29 03:28:00;;;;;;;6.20;3.85;;;;;;;10.14;100.00;101114.47;5072782;28;20044;-81
2021/09/29 03:30:27;;;;;;;7.55;4.10;;;;;;;10.13;100.00;101111.00;5055880;28;20072;-81
2021/09/29 03:32:56;;;;;;;4.82;3.78;;;;;;;10.13;100.00;101113.59;5065728;28;20695;-81
2021/09/29 03:35:24;;;;;;;4.35;3.75;;;;;;;10.13;100.00;101113.59;5057008;28;20555;-80
2021/09/29 03:37:58;;;;;;;6.63;4.78;;;;;;;10.15;100.00;101108.38;5057491;28;20059;-81
2021/09/29 03:40:24;;;;;;;5.60;3.97;;;;;;;10.15;100.00;101100.53;5088494;28;20036;-83
2021/09/29 03:42:51;;;;;;;8.30;4.15;;;;;;;10.16;100.00;101103.13;5060266;28;20148;-81
2021/09/29 03:45:18;;;;;;;4.80;3.60;;;;;;;10.18;100.00;101097.91;5073408;28;20135;-81
2021/09/29 03:47:45;;;;;;;9.10;3.70;;;;;;;10.19;100.00;101100.50;5073255;28;20041;-83
2021/09/29 03:50:14;;;;;;;8.93;4.15;;;;;;;10.18;100.00;101095.28;5069320;28;20041;-83
2021/09/29 03:52:41;;;;;;;3.75;3.42;;;;;;;10.21;100.00;101090.06;5073137;28;20057;-83
2021/09/29 03:55:09;;;;;;;4.68;3.92;;;;;;;10.21;100.00;101095.31;5071833;28;20094;-83
2021/09/29 03:57:37;;;;;;;7.35;3.80;;;;;;;10.21;100.00;101085.69;5072947;28;20045;-84
2021/09/29 04:00:07;;;;;;;3.92;3.58;;;;;;;10.20;100.00;101089.16;5073216;28;20025;-84
2021/09/29 04:02:34;;;;;;;3.63;3.33;;;;;;;10.20;100.00;101081.31;5070890;28;20071;-83
2021/09/29 04:05:01;;;;;;;6.55;3.60;;;;;;;10.21;100.00;101079.59;5074090;28;20494;-84
2021/09/29 04:07:27;;;;;;;5.28;3.92;;;;;;;10.20;100.00;101073.47;5052827;28;20068;-83
2021/09/29 04:09:54;;;;;;;8.13;4.10;;;;;;;10.19;100.00;101070.88;5041794;28;20080;-83
2021/09/29 04:12:21;;;;;;;4.40;3.95;;;;;;;10.16;100.00;101068.25;5072905;28;20047;-84
2021/09/29 04:14:49;;;;;;;6.70;4.40;;;;;;;10.15;100.00;101069.13;5073270;28;20063;-83
2021/09/29 04:17:16;;;;;;;4.65;4.10;;;;;;;10.13;100.00;101066.53;5055886;28;20398;-83
2021/09/29 04:19:43;;;;;;;4.78;3.72;;;;;;;10.12;100.00;101056.91;5072452;28;20056;-83
2021/09/29 04:22:11;;;;;;;7.07;3.95;;;;;;;10.10;100.00;101062.16;5070810;28;20040;-84
2021/09/29 04:24:44;;;;;;;4.55;3.35;;;;;;;10.09;100.00;101060.41;5056731;28;20041;-84
2021/09/29 04:27:14;;;;;;;6.20;3.58;;;;;;;10.09;100.00;101063.03;5072477;28;20457;-82
2021/09/29 04:29:41;;;;;;;4.00;3.20;;;;;;;10.09;100.00;101064.78;5053849;28;20072;-82
2021/09/29 04:32:12;;;;;;;4.50;3.65;;;;;;;10.08;100.00;101058.66;5057478;28;20071;-84
2021/09/29 04:34:39;;;;;;;5.00;3.22;;;;;;;10.09;100.00;101056.94;5057503;28;20076;-83
2021/09/29 04:37:11;;;;;;;5.57;3.38;;;;;;;10.08;100.00;101056.03;5073615;28;20143;-86
2021/09/29 04:39:42;;;;;;;4.93;2.42;;;;;;;10.09;100.00;101047.34;5060317;28;20063;-82
2021/09/29 04:42:12;;;;;;;5.28;3.13;;;;;;;10.10;100.00;101054.31;5063841;28;20210;-83
2021/09/29 04:44:39;;;;;;;3.47;3.03;;;;;;;10.12;100.00;101058.66;5074216;28;20032;-83
2021/09/29 04:47:05;;;;;;;2.53;2.20;;;;;;;10.15;100.00;101056.03;5054152;28;20109;-82
2021/09/29 04:49:35;;;;;;;3.38;3.08;;;;;;;10.18;100.00;101050.81;5074321;28;20045;-83
2021/09/29 04:52:02;;;;;;;4.78;2.88;;;;;;;10.17;100.00;101049.06;5074614;28;20487;-81
2021/09/29 04:54:29;;;;;;;4.97;3.10;;;;;;;10.16;100.00;101044.72;5076502;28;20044;-83
2021/09/29 04:56:55;;;;;;;5.10;3.45;;;;;;;10.13;100.00;101042.97;5073629;28;20094;-81
2021/09/29 04:59:22;;;;;;;5.07;3.33;;;;;;;10.09;100.00;101043.84;5056635;28;20044;-81
2021/09/29 05:01:49;;;;;;;4.68;4.05;;;;;;;10.06;100.00;101047.34;5070938;28;20044;-82
2021/09/29 05:04:24;;;;;;;3.72;2.72;;;;;;;10.04;100.00;101050.84;5073232;28;20040;-82
2021/09/29 05:06:52;;;;;;;5.40;3.42;;;;;;;10.01;100.00;101038.63;5056830;28;20048;-81
2021/09/29 05:09:18;;;;;;;4.60;3.03;;;;;;;9.99;100.00;101048.19;5071662;28;20036;-80
2021/09/29 05:11:55;;;;;;;7.75;4.05;;;;;;;9.96;100.00;101044.72;5073437;28;20131;-83
2021/09/29 05:14:22;;;;;;;5.70;3.28;;;;;;;9.96;100.00;101042.97;5076296;28;20037;-80
2021/09/29 05:16:48;;;;;;;7.25;4.05;;;;;;;9.97;100.00;101041.22;5075215;28;20053;-81
2021/09/29 05:19:15;;;;;;;4.65;3.53;;;;;;;10.01;100.00;101040.34;5058028;28;20036;-82
2021/09/29 05:21:42;;;;;;;3.97;2.88;;;;;;;10.04;100.00;101040.38;5073003;28;20052;-81
2021/09/29 05:24:09;;;;;;;4.28;3.10;;;;;;;10.10;100.00;101040.34;5076183;28;20039;-81
2021/09/29 05:26:39;;;;;;;7.97;4.13;;;;;;;10.17;100.00;101033.34;5093729;28;20064;-82
2021/09/29 05:29:07;;;;;;;5.95;4.25;;;;;;;10.22;100.00;101039.44;5076808;28;20102;-82
2021/09/29 05:31:34;;;;;;;5.25;3.63;;;;;;;10.26;100.00;101038.59;5074583;28;20131;-82
2021/09/29 05:34:01;;;;;;;5.65;4.00;;;;;;;10.26;100.00;101029.00;5055694;28;20108;-83
2021/09/29 05:36:28;;;;;;;10.77;3.80;;;;;;;10.25;100.00;101027.25;5057761;28;20045;-83
2021/09/29 05:38:55;;;;;;;7.32;4.40;;;;;;;10.26;100.00;101028.13;5073621;28;20051;-82
2021/09/29 05:41:22;;;;;;;5.30;4.10;;;;;;;10.25;100.00;101029.88;5058536;28;20048;-87
2021/09/29 05:43:50;;;;;;;4.53;4.10;;;;;;;10.26;100.00;101025.53;5057441;28;20056;-82
2021/09/29 05:46:17;;;;;;;6.22;4.00;;;;;;;10.26;100.00;101015.91;5071678;28;20044;-82
2021/09/29 05:48:44;;;;;;;5.28;4.18;;;;;;;10.27;100.00;101017.66;5070236;28;20123;-81
2021/09/29 05:51:10;;;;;;;6.45;5.57;;;;;;;10.26;100.00;101013.28;5073545;28;20044;-81
2021/09/29 05:53:37;;;;;;;6.35;4.28;;;;;;;10.29;100.00;101017.66;5054913;28;20375;-83
2021/09/29 05:56:04;;;;;;;6.40;5.35;;;;;;;10.30;100.00;101014.16;5070355;28;20113;-84
2021/09/29 05:58:31;;;;;;;5.75;4.13;;;;;;;10.36;100.00;101013.31;5071866;28;20043;-85
2021/09/29 06:00:58;;;;;;;4.97;4.57;;;;;;;10.38;100.00;101009.81;5053696;28;20372;-84
2021/09/29 06:03:25;;;;;;;9.68;4.53;;;;;;;10.41;100.00;101001.09;5054843;28;20071;-82
2021/09/29 06:05:51;;;;;;;7.78;4.35;;;;;;;10.45;100.00;101005.44;5070334;28;20471;-83
2021/09/29 06:08:18;;;;;;;7.60;4.68;;;;;;;10.47;100.00;101003.69;5070889;28;20067;-85
2021/09/29 06:10:44;;;;;;;11.93;5.13;;;;;;;10.50;100.00;101005.44;5070894;28;20079;-82
2021/09/29 06:13:11;;;;;;;8.07;4.80;;;;;;;10.53;100.00;101000.19;5071588;28;20124;-83
2021/09/29 06:15:38;;;;;;;5.97;4.88;;;;;;;10.56;100.00;100998.44;5072015;28;20060;-82
2021/09/29 06:18:12;;;;;;;7.18;5.80;;;;;;;10.63;100.00;101009.75;5052269;28;20040;-84
2021/09/29 06:20:38;;;;;;;12.20;5.07;;;;;;;10.74;100.00;101012.31;5077060;28;20033;-85
2021/09/29 06:23:05;;;;;;;8.32;5.20;;;;;;;10.83;100.00;101017.50;5069321;28;20040;-85
2021/09/29 06:25:32;;;;;;;10.07;4.68;;;;;;;10.90;100.00;101005.28;5055481;28;20048;-87
2021/09/29 06:27:59;;;;;;;5.13;4.45;;;;;;;10.93;100.00;101000.88;5071342;28;20064;-83
2021/09/29 06:30:26;;;;;;;7.22;5.10;;;;;;;10.96;100.00;100993.91;5053700;28;20045;-83
2021/09/29 06:32:53;;;;;;;7.88;4.95;;;;;;;10.97;100.00;100982.53;5061030;28;20107;-83
2021/09/29 06:35:19;;;;;;;8.30;5.30;;;;;;;11.02;100.00;100989.50;5070291;28;20063;-85
2021/09/29 06:37:47;;;;;;;6.85;4.72;;;;;;;11.08;100.00;100985.94;5072252;28;20048;-83
2021/09/29 06:40:18;;;;;;;8.80;5.25;;;;;;;11.15;100.00;100971.09;5053050;28;20098;-83
2021/09/29 06:42:46;;;;;;;8.02;4.97;;;;;;;11.21;100.00;100966.69;5066736;28;20482;-83
2021/09/29 06:45:15;;;;;;;6.97;5.15;;;;;;;11.26;100.00;100977.13;5069712;28;20040;-84
2021/09/29 06:47:45;;;;;;;9.23;5.22;;;;;;;11.33;100.00;100980.56;5054064;28;20055;-83
2021/09/29 06:50:14;;;;;;;10.27;5.22;;;;;;;11.38;100.00;100969.19;5069727;28;20537;-83
2021/09/29 06:52:42;;;;;;;5.93;4.50;;;;;;;11.41;99.67;100968.28;5069530;28;20044;-83
2021/09/29 06:55:10;;;;;;;9.23;5.20;;;;;;;11.48;99.78;100969.13;5071412;28;20045;-84
2021/09/29 06:57:38;;;;;;;8.95;5.30;;;;;;;11.61;99.47;100978.59;5071622;28;20076;-84
2021/09/29 07:00:08;;;;;;;7.95;6.10;;;;;;;11.74;98.89;100975.00;5068347;28;20051;-83
2021/09/29 07:02:35;;;;;;;10.07;5.13;;;;;;;11.82;98.72;100985.41;5066922;28;20110;-84
2021/09/29 07:05:01;;;;;;;4.72;4.32;;;;;;;11.82;98.40;100977.56;5073543;28;20128;-82
2021/09/29 07:07:28;;;;;;;7.50;6.00;;;;;;;11.79;97.99;100974.97;5053008;28;20093;-82
2021/09/29 07:09:54;;;;;;;8.90;6.55;;;;;;;11.81;98.22;100973.22;5073137;28;20494;-82
2021/09/29 07:12:21;;;;;;;7.55;6.10;;;;;;;11.84;98.18;100969.69;5074639;28;20414;-83
2021/09/29 07:14:48;;;;;;;9.85;5.28;;;;;;;11.86;97.88;100965.28;5057012;28;20044;-82
2021/09/29 07:17:14;;;;;;;7.25;5.30;;;;;;;11.86;97.90;100966.19;5057414;28;20040;-83
2021/09/29 07:19:41;;;;;;;7.03;4.78;;;;;;;11.91;98.28;100963.50;5071016;28;20131;-83
2021/09/29 07:22:08;;;;;;;9.65;5.22;;;;;;;11.96;97.85;100968.75;5070882;28;20047;-83
2021/09/29 07:24:35;;;;;;;7.93;5.45;;;;;;;12.07;97.86;100959.88;5073693;28;20036;-84
2021/09/29 07:27:01;;;;;;;9.68;5.30;;;;;;;12.23;97.04;100963.19;5058777;28;20501;-83
2021/09/29 07:29:28;;;;;;;7.35;5.00;;;;;;;12.51;96.74;100951.50;5074678;28;20052;-83
2021/09/29 07:31:54;;;;;;;10.65;5.25;;;;;;;12.89;94.76;100947.50;5073703;28;20495;-82
2021/09/29 07:34:23;;;;;;;10.32;5.32;;;;;;;13.18;93.14;100949.72;5073646;28;20115;-82
2021/09/29 07:36:50;;;;;;;9.57;6.82;;;;;;;13.34;91.02;100953.00;5072487;28;20475;-83
2021/09/29 07:39:17;;;;;;;8.80;5.47;;;;;;;13.42;91.42;100941.53;5072118;28;20039;-80
2021/09/29 07:41:44;;;;;;;6.70;4.85;;;;;;;13.46;90.77;100948.47;5075383;28;20044;-82
2021/09/29 07:44:12;;;;;;;8.65;5.45;;;;;;;13.59;90.79;100941.25;5073938;28;20048;-81
2021/09/29 07:46:39;;;;;;;6.28;5.28;;;;;;;13.67;89.67;100942.81;5057684;28;20049;-82
2021/09/29 07:49:05;;;;;;;8.98;5.68;;;;;;;13.72;89.29;100925.19;5073537;28;20070;-81
2021/09/29 07:51:32;;;;;;;8.93;6.15;;;;;;;13.79;88.87;100933.84;5073464;28;20097;-81
2021/09/29 07:53:58;;;;;;;7.45;5.40;;;;;;;13.84;88.44;100925.88;5073808;28;20129;-82
2021/09/29 07:56:25;;;;;;;6.50;5.68;;;;;;;13.86;88.13;100927.59;5074735;28;20049;-81
2021/09/29 07:58:52;;;;;;;14.18;5.88;;;;;;;13.93;87.81;100920.44;5074621;28;20678;-83
2021/09/29 08:01:18;;;;;;;8.15;5.90;;;;;;;14.04;87.13;100923.75;5058355;28;20071;-84
2021/09/29 08:03:46;;;;;;;8.77;5.95;;;;;;;14.26;85.62;100928.59;5080461;28;20124;-84
2021/09/29 08:06:14;;;;;;;8.00;6.50;;;;;;;14.39;84.84;100932.72;5074729;28;20067;-82
2021/09/29 08:08:40;;;;;;;11.50;6.80;;;;;;;14.43;83.96;100933.53;5075913;28;20432;-82
2021/09/29 08:11:07;;;;;;;8.13;5.85;;;;;;;14.44;84.40;100918.59;5075039;28;20493;-83
2021/09/29 08:13:34;;;;;;;8.90;6.07;;;;;;;14.44;84.28;100930.00;5074799;28;20044;-81
2021/09/29 08:16:03;;;;;;;9.57;6.32;;;;;;;14.45;83.68;100929.09;5072128;28;20053;-82
2021/09/29 08:18:30;;;;;;;9.68;5.88;;;;;;;14.45;83.92;100931.72;5071945;28;20055;-81
2021/09/29 08:20:58;;;;;;;8.35;5.30;;;;;;;14.48;84.53;100925.53;5055962;28;20053;-81
2021/09/29 08:23:30;;;;;;;6.72;4.90;;;;;;;14.49;83.67;100925.50;5073632;28;20041;-83
2021/09/29 08:26:25;;;;;;;6.38;4.97;;;;;;;14.44;83.57;100926.50;5064095;28;20068;-82
2021/09/29 08:29:06;;;;;;;7.55;5.63;;;;;;;14.29;83.36;100931.19;5059887;28;20076;-82
2021/09/29 08:31:36;;;;;;;5.32;4.57;;;;;;;14.19;84.18;100930.47;5072507;28;20051;-82
2021/09/29 08:34:14;;;;;;;5.57;4.45;;;;;;;14.22;83.65;100927.81;5072531;28;20045;-82
2021/09/29 08:36:47;;;;;;;7.13;4.15;;;;;;;14.21;84.11;100926.06;5070462;28;20631;-83
2021/09/29 08:39:17;;;;;;;4.18;3.80;;;;;;;14.32;83.60;100914.44;5071468;28;20059;-82
2021/09/29 08:44:29;;;;;;;4.80;4.25;;;;;;;14.50;82.03;100915.84;5056764;28;20048;-82
2021/09/29 08:47:06;;;;;;;7.35;3.90;;;;;;;14.49;82.53;100920.22;5070072;28;20083;-82
2021/09/29 08:49:50;;;;;;;8.00;4.25;;;;;;;14.53;82.29;100911.34;5072130;28;20040;-82
2021/09/29 08:52:35;;;;;;;6.65;4.78;;;;;;;14.67;81.90;100911.09;5070394;28;20040;-82
2021/09/29 08:58:02;;;;;;;8.45;4.00;;;;;;;14.95;79.90;100904.34;5050811;28;20052;-83
2021/09/29 09:17:06;;;;;;;4.75;3.30;;;;;;;14.71;81.31;100890.81;5073531;28;20041;-84
2021/09/29 09:19:33;;;;;;;7.05;3.35;;;;;;;14.82;80.65;100891.47;5071668;28;20032;-82
2021/09/29 09:22:03;;;;;;;3.85;2.83;;;;;;;14.93;80.36;100891.19;5053624;28;20040;-82
2021/09/29 09:24:34;;;;;;;2.83;2.60;;;;;;;15.12;79.47;100893.41;5055138;28;20062;-82
2021/09/29 09:27:08;;;;;;;4.47;2.17;;;;;;;15.39;78.63;100890.06;5070659;28;20043;-83
2021/09/29 09:29:52;;;;;;;2.58;2.38;;;;;;;15.67;77.79;100875.28;5072745;28;20052;-81
2021/09/29 09:32:22;;;;;;;3.28;2.25;;;;;;;15.91;76.86;100872.97;5072952;28;20154;-82
2021/09/29 09:35:06;;;;;;;2.33;2.20;;;;;;;16.19;74.63;100873.00;5072516;28;20049;-81
2021/09/29 09:37:33;;;;;;;4.47;2.20;;;;;;;16.65;74.14;100863.72;5068470;28;20044;-82
2021/09/29 09:40:20;;;;;;;8.60;1.95;;;;;;;18.06;68.62;100860.84;5056585;28;20431;-82
2021/09/29 09:42:56;;;;;;;1.55;1.40;;;;;;;19.94;63.00;100855.03;5071432;28;20080;-82
2021/09/29 09:45:42;;;;;;;3.88;2.15;;;;;;;21.68;55.29;100842.25;5050793;28;20052;-82
2021/09/29 09:48:26;;;;;;;1.50;1.35;;;;;;;21.41;52.32;100846.25;5085253;28;20068;-82
2021/09/29 09:51:12;;;;;;;1.65;1.55;;;;;;;20.79;55.64;100843.13;5068482;28;20047;-82
2021/09/29 09:53:39;;;;;;;1.42;1.23;;;;;;;20.10;57.64;100839.25;5084389;22;20057;-83
2021/09/29 09:56:23;;;;;;;2.13;1.10;;;;;;;19.49;57.26;100828.63;5002194;28;20529;-82
2021/09/29 09:58:54;;;;;;;1.80;1.20;;;;;;;19.08;60.38;100838.34;5003769;28;20046;-81
2021/09/29 10:01:22;;;;;;;1.80;1.27;;;;;;;18.94;59.75;100826.53;5018837;28;20591;-82
2021/09/29 10:03:52;;;;;;;2.30;1.45;;;;;;;19.04;59.80;100828.81;5020163;28;20167;-82
2021/09/29 10:06:21;;;;;;;2.60;1.73;;;;;;;20.33;57.71;100827.56;5019233;28;20420;-84
2021/09/29 10:08:53;;;;;;;1.42;0.95;;;;;;;22.08;52.69;100824.16;5022821;28;20050;-83
2021/09/29 10:11:24;;;;;;;2.83;1.20;;;;;;;23.94;49.04;100819.66;5009819;28;20062;-82
2021/09/29 10:14:18;;;;;;;1.52;1.20;;;;;;;25.23;45.83;100804.19;5021170;28;20057;-82
2021/09/29 10:23:07;;;;;;;2.70;0.68;;;;;;;27.59;38.67;100790.66;5015045;28;20042;-82
2021/09/29 10:28:20;;;;;;;3.42;0.60;;;;;;;28.81;37.01;100784.41;5009877;28;20061;-81
2021/09/29 10:31:13;;;;;;;2.35;0.75;;;;;;;29.06;34.79;100790.41;5019065;28;20073;-82
2021/09/29 10:33:44;;;;;;;2.88;0.65;;;;;;;29.26;35.08;100788.69;5001851;28;20049;-82
2021/09/29 10:36:22;;;;;;;2.08;1.33;;;;;;;29.29;33.04;100779.50;5020707;28;20042;-82
2021/09/29 10:42:08;;;;;;;;;;;;;;;29.91;32.52;100782.22;5024304;28;20030;-82
2021/09/29 10:45:21;;;;;;;3.65;0.95;;;;;;;30.31;33.11;100781.34;5022732;28;19936;-81
2021/09/29 10:48:03;;;;;;;1.00;0.70;;;;;;;30.50;31.38;100778.69;5009950;28;20073;-80
2021/09/29 10:50:55;;;;;;;1.23;0.70;;;;;;;30.75;31.88;100781.00;5023477;28;20484;-83
2021/09/29 11:07:30;;;;;;;0.30;0.30;;;;;;;28.57;32.11;100762.19;5026124;28;20044;-82
2021/09/29 11:29:45;;;;;;;2.80;0.70;;;;;;;19.58;48.50;100779.56;5011931;28;20115;-83
2021/09/29 11:35:17;;;;;;;5.60;1.00;;;;;;;18.85;50.49;100780.00;5010031;28;20113;-82
2021/09/29 12:08:45;;;;;;;1.48;0.93;;;;;;;18.72;56.87;100749.59;5012889;28;20065;-82
2021/09/29 12:11:20;;;;;;;1.10;0.50;;;;;;;18.65;56.81;100750.78;5019072;28;20064;-82
2021/09/29 12:13:53;;;;;;;1.50;0.85;;;;;;;18.64;57.27;100747.28;5027212;28;20049;-83
2021/09/29 12:16:38;;;;;;;;;;;;;;;18.62;57.62;100743.81;5028631;28;20104;-83
2021/09/29 12:19:20;;;;;;;2.90;1.13;;;;;;;18.56;56.78;100738.75;5020150;28;20011;-84
2021/09/29 12:21:50;;;;;;;1.23;1.08;;;;;;;18.45;57.77;100731.25;5011445;28;20042;-83
2021/09/29 12:24:34;;;;;;;3.30;1.67;;;;;;;18.30;58.29;100734.50;5007790;28;20116;-82
2021/09/29 12:27:02;;;;;;;5.63;1.27;;;;;;;18.14;58.15;100724.50;5035778;28;20107;-83
2021/09/29 12:29:34;;;;;;;4.43;1.50;;;;;;;18.03;58.85;100732.03;5019525;28;20050;-83
2021/09/29 12:32:31;;;;;;;4.70;2.58;;;;;;;17.84;59.50;100724.75;5020058;28;20060;-84
2021/09/29 12:35:19;;;;;;;4.30;2.25;;;;;;;17.68;59.95;100719.19;5014005;28;20053;-83
2021/09/29 12:37:58;;;;;;;4.70;1.90;;;;;;;17.59;60.37;100716.03;5016559;28;20046;-82
2021/09/29 12:40:28;;;;;;;2.05;1.38;;;;;;;17.52;60.47;100708.31;5002943;28;20053;-81
2021/09/29 12:43:10;;;;;;;3.38;2.63;;;;;;;17.49;61.09;100710.19;5019017;28;20045;-82
2021/09/29 12:45:40;;;;;;;2.97;1.85;;;;;;;17.62;60.23;100703.50;5021364;28;20044;-84
2021/09/29 12:48:11;;;;;;;7.78;3.75;;;;;;;18.16;58.12;100700.59;5008378;28;20075;-82
2021/09/29 12:50:46;;;;;;;6.72;1.45;;;;;;;19.27;54.45;100695.13;5022847;28;20041;-83
2021/09/29 12:53:20;;;;;;;2.30;1.20;;;;;;;20.65;50.98;100692.19;5018898;28;20487;-84
2021/09/29 12:55:55;;;;;;;3.15;1.02;;;;;;;21.74;46.35;100682.94;5033485;28;20066;-81
2021/09/29 12:58:22;;;;;;;8.95;2.90;;;;;;;23.36;43.11;100678.00;5022645;28;20533;-81
2021/09/29 13:00:49;;;;;;;2.47;0.68;;;;;;;24.04;41.16;100681.75;5004262;28;20099;-81
2021/09/29 13:03:17;;;;;;;3.03;1.58;;;;;;;23.69;42.20;100679.50;5016413;28;20049;-83
2021/09/29 13:05:44;;;;;;;2.50;1.88;;;;;;;23.06;42.37;100686.94;5019686;28;20041;-82
2021/09/29 13:08:11;;;;;;;3.60;0.95;;;;;;;23.46;42.71;100681.81;5016931;28;20052;-81
2021/09/29 13:10:37;;;;;;;0.75;0.35;;;;;;;24.11;40.42;100677.69;5019260;28;20121;-82
2021/09/29 13:13:04;;;;;;;0.77;0.43;;;;;;;25.34;38.26;100693.56;5032439;28;20038;-81
2021/09/29 13:15:32;;;;;;;5.63;1.17;;;;;;;25.55;37.01;100684.06;5021344;28;20136;-80